createdAt,value
2018-12-01T00:00:36.182Z,100.00
2018-12-01T00:03:07.327Z,100.00
2018-12-01T00:05:38.470Z,100.00
2018-12-01T00:08:10.361Z,100.00
2018-12-01T00:10:42.800Z,100.00
2018-12-01T00:13:13.642Z,100.00
2018-12-01T00:15:44.612Z,100.00
2018-12-01T00:18:15.973Z,100.00
2018-12-01T00:20:47.095Z,100.00
2018-12-01T00:23:17.940Z,100.00
2018-12-01T00:25:49.152Z,100.00
2018-12-01T00:28:20.013Z,100.00
2018-12-01T00:30:50.930Z,100.00
2018-12-01T00:33:21.860Z,100.00
2018-12-01T00:35:53.110Z,100.00
2018-12-01T00:38:24.488Z,100.00
2018-12-01T00:40:55.509Z,100.00
2018-12-01T00:43:26.562Z,100.00
2018-12-01T00:46:01.325Z,100.00
2018-12-01T00:48:32.376Z,100.00
2018-12-01T00:51:03.382Z,100.00
2018-12-01T00:53:34.287Z,100.00
2018-12-01T00:56:07.790Z,100.00
2018-12-01T00:58:38.734Z,100.00
2018-12-01T01:01:09.733Z,100.00
2018-12-01T01:03:40.968Z,100.00
2018-12-01T01:06:11.909Z,100.00
2018-12-01T01:08:42.897Z,100.00
2018-12-01T01:11:14.387Z,100.00
2018-12-01T01:13:45.282Z,100.00
2018-12-01T01:16:16.163Z,100.00
2018-12-01T01:18:47.129Z,100.00
2018-12-01T01:21:19.331Z,100.00
2018-12-01T01:23:50.300Z,100.00
2018-12-01T01:26:21.204Z,100.00
2018-12-01T01:28:52.166Z,100.00
2018-12-01T01:31:24.453Z,100.00
2018-12-01T01:33:55.318Z,100.00
2018-12-01T01:36:26.332Z,100.00
2018-12-01T01:38:57.283Z,100.00
2018-12-01T01:41:32.047Z,100.00
2018-12-01T01:44:03.057Z,100.00
2018-12-01T01:46:34.130Z,100.00
2018-12-01T01:49:05.419Z,100.00
2018-12-01T01:51:36.391Z,100.00
2018-12-01T01:54:07.430Z,100.00
2018-12-01T01:56:38.596Z,100.00
2018-12-01T01:59:09.548Z,100.00
2018-12-01T02:01:41.578Z,100.00
2018-12-01T02:04:12.527Z,100.00
2018-12-01T02:06:43.742Z,100.00
2018-12-01T02:09:14.640Z,100.00
2018-12-01T02:11:45.518Z,100.00
2018-12-01T02:14:16.404Z,100.00
2018-12-01T02:16:49.848Z,100.00
2018-12-01T02:19:20.833Z,100.00
2018-12-01T02:21:51.779Z,100.00
2018-12-01T02:24:28.822Z,100.00
2018-12-01T02:26:59.758Z,100.00
2018-12-01T02:29:30.688Z,100.00
2018-12-01T02:32:01.652Z,100.00
2018-12-01T02:34:35.026Z,100.00
2018-12-01T02:37:06.168Z,100.00
2018-12-01T02:39:37.079Z,100.00
2018-12-01T02:42:08.094Z,100.00
2018-12-01T02:45:00.746Z,100.00
2018-12-01T02:47:32.075Z,100.00
2018-12-01T02:50:03.335Z,100.00
2018-12-01T02:52:34.214Z,100.00
2018-12-01T02:55:05.971Z,100.00
2018-12-01T02:57:39.387Z,100.00
2018-12-01T03:00:13.199Z,100.00
2018-12-01T03:02:45.909Z,100.00
2018-12-01T03:05:17.021Z,100.00
2018-12-01T03:07:47.911Z,100.00
2018-12-01T03:10:19.188Z,100.00
2018-12-01T03:12:50.330Z,100.00
2018-12-01T03:15:21.810Z,100.00
2018-12-01T03:17:53.362Z,100.00
2018-12-01T03:20:24.407Z,100.00
2018-12-01T03:22:56.848Z,100.00
2018-12-01T03:25:27.892Z,100.00
2018-12-01T03:27:58.811Z,100.00
2018-12-01T03:30:35.531Z,100.00
2018-12-01T03:33:06.569Z,100.00
2018-12-01T03:35:37.436Z,100.00
2018-12-01T03:38:10.966Z,100.00
2018-12-01T03:40:46.814Z,100.00
2018-12-01T03:43:17.746Z,100.00
2018-12-01T03:45:49.065Z,100.00
2018-12-01T03:48:20.067Z,100.00
2018-12-01T03:50:51.005Z,100.00
2018-12-01T03:53:25.861Z,100.00
2018-12-01T03:55:56.869Z,100.00
2018-12-01T03:58:28.971Z,100.00
2018-12-01T04:00:59.926Z,100.00
2018-12-01T04:03:31.067Z,100.00
2018-12-01T04:06:02.115Z,100.00
2018-12-01T04:08:35.475Z,100.00
2018-12-01T04:11:06.857Z,100.00
2018-12-01T04:13:38.780Z,100.00
2018-12-01T04:16:09.697Z,100.00
2018-12-01T04:18:44.496Z,100.00
2018-12-01T04:21:15.454Z,100.00
2018-12-01T04:23:46.533Z,100.00
2018-12-01T04:26:17.463Z,100.00
2018-12-01T04:28:49.377Z,100.00
2018-12-01T04:31:20.496Z,100.00
2018-12-01T04:33:52.578Z,100.00
2018-12-01T04:36:23.614Z,100.00
2018-12-01T04:38:54.483Z,100.00
2018-12-01T04:41:31.833Z,100.00
2018-12-01T04:44:02.747Z,100.00
2018-12-01T04:46:33.688Z,100.00
2018-12-01T04:49:04.632Z,100.00
2018-12-01T04:51:35.914Z,100.00
2018-12-01T04:54:07.037Z,100.00
2018-12-01T04:56:37.948Z,100.00
2018-12-01T04:59:09.214Z,100.00
2018-12-01T05:01:40.182Z,100.00
2018-12-01T05:04:11.179Z,100.00
2018-12-01T05:06:42.193Z,100.00
2018-12-01T05:09:13.419Z,100.00
2018-12-01T05:11:44.361Z,100.00
2018-12-01T05:14:16.423Z,100.00
2018-12-01T05:16:47.326Z,100.00
2018-12-01T05:19:18.351Z,100.00
2018-12-01T05:21:49.249Z,100.00
2018-12-01T05:24:20.506Z,100.00
2018-12-01T05:26:51.678Z,100.00
2018-12-01T05:29:22.726Z,100.00
2018-12-01T05:31:53.826Z,100.00
2018-12-01T05:34:25.222Z,100.00
2018-12-01T05:36:56.149Z,100.00
2018-12-01T05:39:27.227Z,100.00
2018-12-01T05:41:58.272Z,100.00
2018-12-01T05:44:29.571Z,100.00
2018-12-01T05:47:00.545Z,100.00
2018-12-01T05:49:31.485Z,100.00
2018-12-01T05:52:02.482Z,100.00
2018-12-01T05:54:33.837Z,100.00
2018-12-01T05:57:04.910Z,100.00
2018-12-01T05:59:35.850Z,100.00
2018-12-01T06:02:07.162Z,100.00
2018-12-01T06:04:38.404Z,100.00
2018-12-01T06:07:09.634Z,100.00
2018-12-01T06:09:40.444Z,100.00
2018-12-01T06:12:11.350Z,100.00
2018-12-01T06:14:42.640Z,100.00
2018-12-01T06:17:13.544Z,100.00
2018-12-01T06:19:44.393Z,100.00
2018-12-01T06:22:15.272Z,100.00
2018-12-01T06:24:46.641Z,100.00
2018-12-01T06:27:17.676Z,100.00
2018-12-01T06:29:48.640Z,100.00
2018-12-01T06:32:20.064Z,100.00
2018-12-01T06:34:51.466Z,100.00
2018-12-01T06:37:22.562Z,100.00
2018-12-01T06:39:53.602Z,100.00
2018-12-01T06:42:24.650Z,100.00
2018-12-01T06:44:55.715Z,100.00
2018-12-01T06:47:26.766Z,100.00
2018-12-01T06:49:57.719Z,100.00
2018-12-01T06:52:29.229Z,100.00
2018-12-01T06:55:00.307Z,100.00
2018-12-01T06:57:31.343Z,100.00
2018-12-01T07:00:04.828Z,100.00
2018-12-01T07:02:35.778Z,100.00
2018-12-01T07:05:07.909Z,100.00
2018-12-01T07:07:39.114Z,100.00
2018-12-01T07:10:12.036Z,100.00
2018-12-01T07:12:44.352Z,100.00
2018-12-01T07:15:18.370Z,100.00
2018-12-01T07:17:50.689Z,100.00
2018-12-01T07:20:21.727Z,100.00
2018-12-01T07:22:52.719Z,100.00
2018-12-01T07:25:23.765Z,100.00
2018-12-01T07:27:55.053Z,100.00
2018-12-01T07:30:26.170Z,100.00
2018-12-01T07:32:57.199Z,100.00
2018-12-01T07:35:28.213Z,100.00
2018-12-01T07:38:00.620Z,100.00
2018-12-01T07:40:31.876Z,100.00
2018-12-01T07:43:04.286Z,100.00
2018-12-01T07:45:35.278Z,100.00
2018-12-01T07:48:06.210Z,100.00
2018-12-01T07:50:37.229Z,100.00
2018-12-01T07:53:09.720Z,100.00
2018-12-01T07:55:40.673Z,100.00
2018-12-01T07:58:12.042Z,100.00
2018-12-01T08:00:44.163Z,100.00
2018-12-01T08:03:15.677Z,100.00
2018-12-01T08:05:46.779Z,100.00
2018-12-01T08:08:17.715Z,100.00
2018-12-01T08:10:48.754Z,100.00
2018-12-01T08:13:21.775Z,100.00
2018-12-01T08:15:54.833Z,100.00
2018-12-01T08:18:25.828Z,100.00
2018-12-01T08:20:58.434Z,100.00
2018-12-01T08:23:29.434Z,100.00
2018-12-01T08:26:00.359Z,100.00
2018-12-01T08:28:31.922Z,100.00
2018-12-01T08:31:03.201Z,100.00
2018-12-01T08:33:34.208Z,100.00
2018-12-01T08:36:05.547Z,100.00
2018-12-01T08:38:36.630Z,100.00
2018-12-01T08:41:07.667Z,100.00
2018-12-01T08:43:39.090Z,100.00
2018-12-01T08:46:10.093Z,100.00
2018-12-01T08:48:40.998Z,100.00
2018-12-01T08:51:12.009Z,100.00
2018-12-01T08:53:43.064Z,100.00
2018-12-01T08:56:15.631Z,100.00
2018-12-01T08:58:46.544Z,100.00
2018-12-01T09:01:17.456Z,100.00
2018-12-01T09:03:48.982Z,100.00
2018-12-01T09:06:19.843Z,100.00
2018-12-01T09:08:50.736Z,100.00
2018-12-01T09:11:21.655Z,100.00
2018-12-01T09:13:52.697Z,100.00
2018-12-01T09:16:23.643Z,100.00
2018-12-01T09:18:54.594Z,100.00
2018-12-01T09:21:27.865Z,100.00
2018-12-01T09:23:58.862Z,100.00
2018-12-01T09:26:29.913Z,100.00
2018-12-01T09:29:00.952Z,100.00
2018-12-01T09:31:33.413Z,100.00
2018-12-01T09:34:04.328Z,100.00
2018-12-01T09:36:36.594Z,100.00
2018-12-01T09:39:09.460Z,100.00
2018-12-01T09:41:41.761Z,99.48
2018-12-01T09:44:13.753Z,99.91
2018-12-01T09:46:45.791Z,99.71
2018-12-01T09:49:16.791Z,99.66
2018-12-01T09:51:48.010Z,100.00
2018-12-01T09:54:19.633Z,100.00
2018-12-01T09:56:50.492Z,100.00
2018-12-01T09:59:21.501Z,98.55
2018-12-01T10:01:52.520Z,99.30
2018-12-01T10:04:23.498Z,99.38
2018-12-01T10:06:54.434Z,98.91
2018-12-01T10:09:26.079Z,99.78
2018-12-01T10:11:57.465Z,98.55
2018-12-01T10:14:29.851Z,97.66
2018-12-01T10:17:01.185Z,98.11
2018-12-01T10:19:32.164Z,95.91
2018-12-01T10:22:03.364Z,96.05
2018-12-01T10:24:34.429Z,94.93
2018-12-01T10:27:06.260Z,92.76
2018-12-01T10:29:37.998Z,90.58
2018-12-01T10:32:09.343Z,89.75
2018-12-01T10:34:40.717Z,89.74
2018-12-01T10:37:11.939Z,87.42
2018-12-01T10:39:44.257Z,86.67
2018-12-01T10:47:20.498Z,84.96
2018-12-01T10:49:51.249Z,86.75
2018-12-01T10:52:21.934Z,86.43
2018-12-01T10:54:53.053Z,87.60
2018-12-01T10:57:24.370Z,87.61
2018-12-01T10:59:55.394Z,87.58
2018-12-01T11:02:31.051Z,88.31
2018-12-01T11:05:01.773Z,86.85
2018-12-01T11:07:32.537Z,86.60
2018-12-01T11:10:03.445Z,86.38
2018-12-01T11:12:34.092Z,88.67
2018-12-01T11:15:05.044Z,88.75
2018-12-01T11:17:36.082Z,86.57
2018-12-01T11:20:10.953Z,85.77
2018-12-01T11:22:41.731Z,84.80
2018-12-01T11:25:22.005Z,84.18
2018-12-01T11:27:53.485Z,84.47
2018-12-01T11:30:24.394Z,82.90
2018-12-01T11:32:56.738Z,79.78
2018-12-01T11:35:27.587Z,80.32
2018-12-01T11:37:58.407Z,80.96
2018-12-01T11:40:29.464Z,81.12
2018-12-01T11:43:00.400Z,80.93
2018-12-01T11:45:33.547Z,80.91
2018-12-01T11:48:04.403Z,80.95
2018-12-01T11:50:35.063Z,79.90
2018-12-01T11:53:06.773Z,79.68
2018-12-01T11:55:37.601Z,81.90
2018-12-01T11:58:08.716Z,84.11
2018-12-01T12:00:40.783Z,82.30
2018-12-01T12:03:11.417Z,80.46
2018-12-01T12:05:42.352Z,82.09
2018-12-01T12:08:20.046Z,80.93
2018-12-01T12:10:51.938Z,78.91
2018-12-01T12:13:24.312Z,78.93
2018-12-01T12:15:55.288Z,77.38
2018-12-01T12:18:26.015Z,79.19
2018-12-01T12:20:56.818Z,77.81
2018-12-01T12:23:28.032Z,79.61
2018-12-01T12:26:00.326Z,80.21
2018-12-01T12:28:31.915Z,81.70
2018-12-01T12:31:02.710Z,82.34
2018-12-01T12:33:33.983Z,82.59
2018-12-01T12:36:04.667Z,82.05
2018-12-01T12:38:39.158Z,82.81
2018-12-01T12:41:10.021Z,83.29
2018-12-01T12:43:40.807Z,81.92
2018-12-01T12:46:19.085Z,80.00
2018-12-01T12:48:49.895Z,78.72
2018-12-01T12:51:20.624Z,76.39
2018-12-01T12:53:51.274Z,76.12
2018-12-01T12:56:21.941Z,80.52
2018-12-01T12:58:52.597Z,77.05
2018-12-01T13:01:23.354Z,77.42
2018-12-01T13:03:54.195Z,74.44
2018-12-01T13:06:33.773Z,74.33
2018-12-01T13:09:06.935Z,72.48
2018-12-01T13:14:16.843Z,75.50
2018-12-01T13:16:47.673Z,75.41
2018-12-01T13:19:18.526Z,74.63
2018-12-01T13:21:49.320Z,74.27
2018-12-01T13:24:20.300Z,75.59
2018-12-01T13:26:51.312Z,76.55
2018-12-01T13:29:22.810Z,75.91
2018-12-01T13:31:54.573Z,74.53
2018-12-01T13:34:26.570Z,75.81
2018-12-01T13:36:57.264Z,74.80
2018-12-01T13:39:28.583Z,76.55
2018-12-01T13:41:59.522Z,78.45
2018-12-01T13:44:30.359Z,78.59
2018-12-01T13:47:01.207Z,80.30
2018-12-01T13:49:32.361Z,78.46
2018-12-01T13:52:03.165Z,80.84
2018-12-01T13:54:33.908Z,81.41
2018-12-01T13:57:06.198Z,82.42
2018-12-01T13:59:37.016Z,82.37
2018-12-01T14:02:08.606Z,80.12
2018-12-01T14:04:39.361Z,78.73
2018-12-01T14:10:03.295Z,78.72
2018-12-01T14:12:34.417Z,81.44
2018-12-01T14:15:05.593Z,80.74
2018-12-01T14:17:36.246Z,80.78
2018-12-01T14:20:07.874Z,80.64
2018-12-01T14:22:40.777Z,81.75
2018-12-01T14:25:13.159Z,81.58
2018-12-01T14:27:47.196Z,81.97
2018-12-01T14:30:18.447Z,82.86
2018-12-01T14:32:49.417Z,83.32
2018-12-01T14:35:36.191Z,81.47
2018-12-01T14:38:10.356Z,83.03
2018-12-01T14:40:42.220Z,84.17
2018-12-01T14:43:13.415Z,80.86
2018-12-01T14:45:45.266Z,83.25
2018-12-01T14:48:16.282Z,80.60
2018-12-01T14:50:48.725Z,79.90
2018-12-01T14:53:20.701Z,80.32
2018-12-01T14:55:51.450Z,81.77
2018-12-01T14:58:22.539Z,81.81
2018-12-01T15:00:53.324Z,82.57
2018-12-01T15:03:24.148Z,82.05
2018-12-01T15:05:55.215Z,83.46
2018-12-01T15:08:26.272Z,83.21
2018-12-01T15:10:58.089Z,84.18
2018-12-01T15:13:31.999Z,83.29
2018-12-01T15:16:02.803Z,83.92
2018-12-01T15:18:34.389Z,83.72
2018-12-01T15:21:05.534Z,84.59
2018-12-01T15:23:36.270Z,85.07
2018-12-01T15:26:07.341Z,85.09
2018-12-01T15:28:38.171Z,85.56
2018-12-01T15:31:08.996Z,85.78
2018-12-01T15:33:39.986Z,86.53
2018-12-01T15:36:11.316Z,86.47
2018-12-01T15:38:42.069Z,86.85
2018-12-01T15:41:12.891Z,87.48
2018-12-01T15:43:45.235Z,87.31
2018-12-01T15:46:16.376Z,87.60
2018-12-01T15:48:47.173Z,87.81
2018-12-01T15:51:18.072Z,88.04
2018-12-01T15:53:48.971Z,87.95
2018-12-01T15:56:20.099Z,88.08
2018-12-01T15:58:50.888Z,88.77
2018-12-01T16:01:22.916Z,88.60
2018-12-01T16:03:54.493Z,89.44
2018-12-01T16:06:25.876Z,89.42
2018-12-01T16:08:56.660Z,91.66
2018-12-01T16:11:27.832Z,92.05
2018-12-01T16:13:59.129Z,90.69
2018-12-01T16:16:33.772Z,90.31
2018-12-01T16:19:06.940Z,91.34
2018-12-01T16:21:37.986Z,92.11
2018-12-01T16:24:11.503Z,89.36
2018-12-01T16:26:43.376Z,89.66
2018-12-01T16:29:14.199Z,89.63
2018-12-01T16:31:44.824Z,89.58
2018-12-01T16:34:17.187Z,89.43
2018-12-01T16:36:48.113Z,89.79
2018-12-01T16:39:22.324Z,90.31
2018-12-01T16:41:53.628Z,90.70
2018-12-01T16:44:39.471Z,91.36
2018-12-01T16:47:10.276Z,89.45
2018-12-01T16:49:42.373Z,90.27
2018-12-01T16:52:13.507Z,90.44
2018-12-01T16:54:44.417Z,90.18
2018-12-01T16:57:15.080Z,90.42
2018-12-01T16:59:46.115Z,89.86
2018-12-01T17:02:16.704Z,90.30
2018-12-01T17:04:47.486Z,91.11
2018-12-01T17:07:18.577Z,91.82
2018-12-01T17:09:49.272Z,92.77
2018-12-01T17:12:20.062Z,92.05
2018-12-01T17:14:52.205Z,92.69
2018-12-01T17:17:23.016Z,92.77
2018-12-01T17:19:53.985Z,93.52
2018-12-01T17:22:24.880Z,93.43
2018-12-01T17:24:55.606Z,93.70
2018-12-01T17:27:26.434Z,93.77
2018-12-01T17:29:58.353Z,93.73
2018-12-01T17:32:29.237Z,93.38
2018-12-01T17:35:00.094Z,93.65
2018-12-01T17:37:32.261Z,93.85
2018-12-01T17:40:03.062Z,93.61
2018-12-01T17:42:39.040Z,93.74
2018-12-01T17:45:11.408Z,93.52
2018-12-01T17:47:43.190Z,93.48
2018-12-01T17:50:15.970Z,93.70
2018-12-01T17:52:50.280Z,93.71
2018-12-01T17:55:21.984Z,93.64
2018-12-01T17:57:54.457Z,93.67
2018-12-01T18:00:26.664Z,93.21
2018-12-01T18:05:56.234Z,92.40
2018-12-01T18:08:44.619Z,91.99
2018-12-01T18:11:19.854Z,92.32
2018-12-01T18:14:23.248Z,92.19
2018-12-01T18:19:56.543Z,91.36
2018-12-01T18:22:27.231Z,90.80
2018-12-01T18:24:58.024Z,90.17
2018-12-01T18:27:29.180Z,90.55
2018-12-01T18:30:00.136Z,90.35
2018-12-01T18:32:47.928Z,90.51
2018-12-01T18:36:01.642Z,90.97
2018-12-01T18:38:32.398Z,90.92
2018-12-01T18:41:03.596Z,90.73
2018-12-01T18:43:34.414Z,90.47
2018-12-01T18:46:08.139Z,89.74
2018-12-01T18:48:39.306Z,90.00
2018-12-01T18:51:10.114Z,90.36
2018-12-01T18:53:40.949Z,90.13
2018-12-01T18:56:11.896Z,89.87
2018-12-01T18:58:42.719Z,90.67
2018-12-01T19:01:13.665Z,90.43
2018-12-01T19:03:48.748Z,90.71
2018-12-01T19:06:19.662Z,91.28
2018-12-01T19:08:50.442Z,91.41
2018-12-01T19:11:21.623Z,90.98
2018-12-01T19:13:52.355Z,91.12
2018-12-01T19:16:23.137Z,91.16
2018-12-01T19:18:53.925Z,90.20
2018-12-01T19:21:24.649Z,90.24
2018-12-01T19:24:00.199Z,90.62
2018-12-01T19:26:31.035Z,90.71
2018-12-01T19:29:02.142Z,90.99
2018-12-01T19:31:33.250Z,90.84
2018-12-01T19:34:03.998Z,90.13
2018-12-01T19:36:34.963Z,89.74
2018-12-01T19:39:08.662Z,90.09
2018-12-01T19:41:40.993Z,89.65
2018-12-01T19:44:12.662Z,88.84
2018-12-01T19:46:43.766Z,89.07
2018-12-01T19:49:20.030Z,88.57
2018-12-01T19:51:50.818Z,88.19
2018-12-01T19:54:21.529Z,89.00
2018-12-01T19:56:52.543Z,88.64
2018-12-01T19:59:23.228Z,89.07
2018-12-01T20:01:54.038Z,89.13
2018-12-01T20:04:25.210Z,88.72
2018-12-01T20:06:55.971Z,88.67
2018-12-01T20:09:26.769Z,88.79
2018-12-01T20:11:57.607Z,88.68
2018-12-01T20:14:28.436Z,88.12
2018-12-01T20:16:59.322Z,88.70
2018-12-01T20:19:30.384Z,88.92
2018-12-01T20:22:01.386Z,88.12
2018-12-01T20:24:33.184Z,89.15
2018-12-01T20:27:04.017Z,89.29
2018-12-01T20:29:35.197Z,89.58
2018-12-01T20:32:05.984Z,88.56
2018-12-01T20:34:37.066Z,87.42
2018-12-01T20:37:11.825Z,87.35
2018-12-01T20:39:44.531Z,85.78
2018-12-01T20:42:15.373Z,85.24
2018-12-01T20:44:46.097Z,85.20
2018-12-01T20:47:19.447Z,85.31
2018-12-01T20:49:50.201Z,85.25
2018-12-01T20:52:21.087Z,85.10
2018-12-01T20:54:52.128Z,86.13
2018-12-01T20:57:27.421Z,86.34
2018-12-01T20:59:58.140Z,86.32
2018-12-01T21:02:28.919Z,85.53
2018-12-01T21:04:59.979Z,85.41
2018-12-01T21:07:30.794Z,85.79
2018-12-01T21:10:01.481Z,85.57
2018-12-01T21:12:33.340Z,85.77
2018-12-01T21:15:04.411Z,85.68
2018-12-01T21:17:35.225Z,85.30
2018-12-01T21:20:11.399Z,83.56
2018-12-01T21:22:42.535Z,84.22
2018-12-01T21:25:14.572Z,84.67
2018-12-01T21:27:45.860Z,85.65
2018-12-01T21:30:24.523Z,86.27
2018-12-01T21:32:57.161Z,84.91
2018-12-01T21:35:27.880Z,84.85
2018-12-01T21:37:58.699Z,84.00
2018-12-01T21:40:29.484Z,84.53
2018-12-01T21:43:00.197Z,84.43
2018-12-01T21:45:32.304Z,83.94
2018-12-01T21:48:03.197Z,84.83
2018-12-01T21:50:33.971Z,83.00
2018-12-01T21:53:34.409Z,83.05
2018-12-01T21:56:05.227Z,82.87
2018-12-01T21:58:36.003Z,83.80
2018-12-01T22:01:07.931Z,81.12
2018-12-01T22:03:38.618Z,81.33
2018-12-01T22:06:09.647Z,81.18
2018-12-01T22:08:41.442Z,81.77
2018-12-01T22:11:12.399Z,81.84
2018-12-01T22:13:43.245Z,81.90
2018-12-01T22:16:14.732Z,81.15
2018-12-01T22:18:45.691Z,79.50
2018-12-01T22:21:17.364Z,80.07
2018-12-01T22:23:48.113Z,79.07
2018-12-01T22:26:21.560Z,79.13
2018-12-01T22:28:53.392Z,79.67
2018-12-01T22:31:26.680Z,78.79
2018-12-01T22:33:57.736Z,78.91
2018-12-01T22:36:28.382Z,79.03
2018-12-01T22:38:59.214Z,77.87
2018-12-01T22:41:29.860Z,79.20
2018-12-01T22:44:00.523Z,78.24
2018-12-01T22:46:31.459Z,79.26
2018-12-01T22:49:02.283Z,81.34
2018-12-01T22:51:34.522Z,81.94
2018-12-01T22:54:05.461Z,80.58
2018-12-01T22:56:36.342Z,78.82
2018-12-01T22:59:06.979Z,79.52
2018-12-01T23:01:38.238Z,78.75
2018-12-01T23:04:09.222Z,78.78
2018-12-01T23:06:40.150Z,78.91
2018-12-01T23:09:10.986Z,80.09
2018-12-01T23:11:41.923Z,78.82
2018-12-01T23:14:12.614Z,80.37
2018-12-01T23:16:43.348Z,78.33
2018-12-01T23:19:15.232Z,79.69
2018-12-01T23:21:46.165Z,80.29
2018-12-01T23:24:16.952Z,80.68
2018-12-01T23:26:47.760Z,80.40
2018-12-01T23:29:20.367Z,80.76
2018-12-01T23:31:52.487Z,81.25
2018-12-01T23:34:25.291Z,80.48
2018-12-01T23:36:56.123Z,79.61
2018-12-01T23:39:26.962Z,79.51
2018-12-01T23:41:57.761Z,79.12
2018-12-01T23:44:30.394Z,78.24
2018-12-01T23:47:02.384Z,78.74
2018-12-01T23:49:36.706Z,78.91
2018-12-01T23:52:09.915Z,78.85
2018-12-01T23:54:45.729Z,78.64
2018-12-01T23:57:16.654Z,77.64
2018-12-01T23:59:50.054Z,77.41
